Time;durP1;ratioP1;P1;durP2;ratioP2;P2;SDS_P1;SDS_P2;PMS_P1;PMS_P2;Temp;Humidity;BMP_temperature;BMP_pressure;BME280_temperature;BME280_humidity;BME280_pressure;Samples;Min_cycle;Max_cycle;Signal;HPM_P1;HPM_P2
2021/03/03 00:01:02;;;;;;;29.00;17.13;;;8.30;99.90;;;;;;5031528;28;20142;-79
2021/03/03 00:03:29;;;;;;;30.65;17.70;;;8.30;99.90;;;;;;5044777;28;20496;-79
2021/03/03 00:05:56;;;;;;;27.67;17.48;;;8.30;99.90;;;;;;5049751;28;20132;-79
2021/03/03 00:08:22;;;;;;;33.95;18.83;;;8.20;99.90;;;;;;5039180;28;20124;-78
2021/03/03 00:10:49;;;;;;;31.27;17.15;;;8.20;99.90;;;;;;5050487;28;20498;-79
2021/03/03 00:13:15;;;;;;;29.13;16.52;;;8.10;99.90;;;;;;5044560;28;20045;-78
2021/03/03 00:15:41;;;;;;;31.80;17.23;;;8.10;99.90;;;;;;5043029;28;20642;-78
2021/03/03 00:18:08;;;;;;;29.63;17.58;;;8.00;99.90;;;;;;5051303;28;20095;-79
2021/03/03 00:20:34;;;;;;;25.13;17.20;;;7.90;99.90;;;;;;5039125;28;20055;-78
2021/03/03 00:23:02;;;;;;;27.10;17.95;;;8.00;99.90;;;;;;5049558;28;20045;-78
2021/03/03 00:25:28;;;;;;;27.45;16.67;;;8.00;99.90;;;;;;5037302;28;20077;-78
2021/03/03 00:27:54;;;;;;;34.40;18.15;;;8.00;99.90;;;;;;5040916;28;20103;-77
2021/03/03 00:30:22;;;;;;;29.60;17.45;;;8.00;99.90;;;;;;5061693;28;20049;-76
2021/03/03 00:32:48;;;;;;;33.53;17.63;;;7.90;99.90;;;;;;5049988;28;20068;-79
2021/03/03 00:35:15;;;;;;;27.30;16.98;;;7.90;99.90;;;;;;5054355;28;20056;-78
2021/03/03 00:37:41;;;;;;;24.73;16.92;;;7.90;99.90;;;;;;5034581;28;20088;-78
2021/03/03 00:40:10;;;;;;;27.15;17.48;;;7.90;99.90;;;;;;5029016;28;20079;-78
2021/03/03 00:42:36;;;;;;;27.83;16.33;;;7.80;99.90;;;;;;5030770;28;20051;-78
2021/03/03 00:45:06;;;;;;;29.65;17.83;;;7.80;99.90;;;;;;5026370;28;20128;-80
2021/03/03 00:47:32;;;;;;;31.90;19.50;;;7.80;99.90;;;;;;5026091;28;20563;-79
2021/03/03 00:49:58;;;;;;;29.67;17.83;;;7.70;99.90;;;;;;5027435;28;20123;-79
2021/03/03 00:52:25;;;;;;;25.33;17.35;;;7.70;99.90;;;;;;5026983;28;20136;-78
2021/03/03 00:54:52;;;;;;;27.80;17.77;;;7.70;99.90;;;;;;5025845;28;20192;-80
2021/03/03 00:57:19;;;;;;;28.42;18.58;;;7.70;99.90;;;;;;5025664;28;20049;-79
2021/03/03 00:59:45;;;;;;;26.60;17.90;;;7.60;99.90;;;;;;5024206;28;20091;-80
2021/03/03 01:02:12;;;;;;;32.42;17.83;;;7.60;99.90;;;;;;5024643;28;20049;-79
2021/03/03 01:04:38;;;;;;;29.67;17.90;;;7.60;99.90;;;;;;5027836;28;20132;-79
2021/03/03 01:07:05;;;;;;;29.83;18.25;;;7.50;99.90;;;;;;5024945;28;20136;-78
2021/03/03 01:09:31;;;;;;;31.75;18.17;;;7.50;99.90;;;;;;5026458;28;20045;-78
2021/03/03 01:11:58;;;;;;;29.98;18.35;;;7.50;99.90;;;;;;5026055;28;20081;-79
2021/03/03 01:14:25;;;;;;;30.70;18.45;;;7.40;99.90;;;;;;5027914;28;20137;-79
2021/03/03 01:16:53;;;;;;;30.55;17.77;;;7.40;99.90;;;;;;5032434;28;20057;-78
2021/03/03 01:19:20;;;;;;;30.02;18.95;;;7.40;99.90;;;;;;5045161;28;20144;-78
2021/03/03 01:21:46;;;;;;;27.92;17.60;;;7.40;99.90;;;;;;5048202;28;20081;-79
2021/03/03 01:24:13;;;;;;;31.20;18.63;;;7.40;99.90;;;;;;5037092;28;20124;-78
2021/03/03 01:26:40;;;;;;;30.33;18.45;;;7.40;99.90;;;;;;5038709;28;20052;-79
2021/03/03 01:29:07;;;;;;;30.80;18.02;;;7.30;99.90;;;;;;5051838;28;20110;-80
2021/03/03 01:31:34;;;;;;;30.33;18.92;;;7.30;99.90;;;;;;5048330;28;20049;-79
2021/03/03 01:34:01;;;;;;;31.83;18.70;;;7.30;99.90;;;;;;5040586;28;20049;-78
2021/03/03 01:36:28;;;;;;;31.02;18.55;;;7.20;99.90;;;;;;5048804;28;20084;-78
2021/03/03 01:38:54;;;;;;;33.58;19.98;;;7.10;99.90;;;;;;5038232;28;20080;-79
2021/03/03 01:41:20;;;;;;;31.42;19.10;;;7.20;99.90;;;;;;5042931;28;20083;-78
2021/03/03 01:43:47;;;;;;;30.17;18.52;;;7.20;99.90;;;;;;5045452;28;20388;-79
2021/03/03 01:46:14;;;;;;;31.23;19.20;;;7.10;99.90;;;;;;5035342;28;20045;-78
2021/03/03 01:48:42;;;;;;;31.15;18.73;;;7.10;99.90;;;;;;5048016;28;20049;-79
2021/03/03 01:51:08;;;;;;;29.83;18.90;;;7.00;99.90;;;;;;5039599;28;20061;-78
2021/03/03 01:53:35;;;;;;;31.85;19.42;;;7.10;99.90;;;;;;5041172;28;20053;-79
2021/03/03 01:56:02;;;;;;;34.10;20.20;;;7.00;99.90;;;;;;5033341;28;20482;-77
2021/03/03 01:58:28;;;;;;;29.60;18.88;;;7.00;99.90;;;;;;5036404;28;20686;-78
2021/03/03 02:00:55;;;;;;;31.55;18.75;;;7.00;99.90;;;;;;5049219;28;20132;-77
2021/03/03 02:03:21;;;;;;;32.50;19.35;;;7.00;99.90;;;;;;5033874;28;20045;-79
2021/03/03 02:05:52;;;;;;;31.33;19.65;;;7.00;99.90;;;;;;5047430;28;20076;-80
2021/03/03 02:08:24;;;;;;;35.15;19.13;;;7.00;99.90;;;;;;5037890;28;20495;-79
2021/03/03 02:10:56;;;;;;;28.98;18.75;;;7.00;99.90;;;;;;5049742;28;20148;-80
2021/03/03 02:13:27;;;;;;;29.17;19.35;;;7.00;99.90;;;;;;5043186;28;20091;-79
2021/03/03 02:15:53;;;;;;;29.95;18.88;;;7.00;99.90;;;;;;5039003;28;20468;-79
2021/03/03 02:18:21;;;;;;;32.63;19.48;;;6.90;99.90;;;;;;5049263;28;20057;-79
2021/03/03 02:20:56;;;;;;;34.22;19.90;;;6.90;99.90;;;;;;5032816;28;20050;-79
2021/03/03 02:23:35;;;;;;;30.70;19.13;;;6.80;99.90;;;;;;5042867;28;20485;-79
2021/03/03 02:26:03;;;;;;;34.42;19.83;;;6.80;99.90;;;;;;5037925;28;20098;-80
2021/03/03 02:28:31;;;;;;;34.72;19.70;;;6.80;99.90;;;;;;5049299;28;20150;-79
2021/03/03 02:30:58;;;;;;;33.85;19.92;;;6.80;99.90;;;;;;5038822;28;20072;-79
2021/03/03 02:33:26;;;;;;;32.88;19.35;;;6.80;99.90;;;;;;5085505;22;20088;-77
2021/03/03 02:35:54;;;;;;;30.77;19.13;;;6.80;99.90;;;;;;5057306;28;20084;-76
2021/03/03 02:38:21;;;;;;;36.72;20.30;;;6.70;99.90;;;;;;5069991;28;20052;-75
2021/03/03 02:40:47;;;;;;;32.45;18.98;;;6.60;99.90;;;;;;5056857;28;20153;-75
2021/03/03 02:43:18;;;;;;;32.22;20.13;;;6.60;99.90;;;;;;5062993;28;20124;-76
2021/03/03 02:45:46;;;;;;;34.13;20.48;;;6.60;99.90;;;;;;5050105;28;20114;-76
2021/03/03 02:48:13;;;;;;;33.80;19.73;;;6.50;99.90;;;;;;5068002;28;20564;-76
2021/03/03 02:50:40;;;;;;;31.13;19.13;;;6.60;99.90;;;;;;5067826;28;20109;-75
2021/03/03 02:53:07;;;;;;;34.90;20.08;;;6.60;99.90;;;;;;5064102;28;20076;-77
2021/03/03 02:55:34;;;;;;;29.08;18.98;;;6.60;99.90;;;;;;5089852;28;20102;-75
2021/03/03 02:58:02;;;;;;;36.38;20.33;;;6.70;99.90;;;;;;5090134;28;20057;-75
2021/03/03 03:00:32;;;;;;;34.65;19.77;;;6.60;99.90;;;;;;5071639;28;20048;-76
2021/03/03 03:03:03;;;;;;;33.67;18.92;;;6.70;99.90;;;;;;5066563;28;20499;-76
2021/03/03 03:05:33;;;;;;;30.92;19.05;;;6.60;99.90;;;;;;5062201;28;20072;-76
2021/03/03 03:08:01;;;;;;;33.78;19.73;;;6.70;99.90;;;;;;5056889;28;20049;-76
2021/03/03 03:10:28;;;;;;;33.30;19.33;;;6.60;99.90;;;;;;5067282;28;20063;-76
2021/03/03 03:12:58;;;;;;;32.08;19.33;;;6.60;99.90;;;;;;5057344;28;20048;-76
2021/03/03 03:15:29;;;;;;;30.17;18.30;;;6.60;99.90;;;;;;5060967;28;20134;-76
2021/03/03 03:18:01;;;;;;;34.58;20.23;;;6.60;99.90;;;;;;5064460;28;20068;-76
2021/03/03 03:20:32;;;;;;;35.92;19.30;;;6.70;99.90;;;;;;5053667;28;20091;-76
2021/03/03 03:23:01;;;;;;;29.90;18.63;;;6.70;99.90;;;;;;5063287;28;20076;-76
2021/03/03 03:25:28;;;;;;;31.35;18.63;;;6.60;99.90;;;;;;5060802;28;20153;-76
2021/03/03 03:27:57;;;;;;;36.35;19.75;;;6.60;99.90;;;;;;5055837;28;20490;-76
2021/03/03 03:30:25;;;;;;;33.53;19.88;;;6.60;99.90;;;;;;5070451;28;20106;-76
2021/03/03 03:32:52;;;;;;;27.58;17.73;;;6.70;99.90;;;;;;5059490;28;20052;-76
2021/03/03 03:35:20;;;;;;;37.85;19.80;;;6.70;99.90;;;;;;5064234;28;20132;-76
2021/03/03 03:37:46;;;;;;;34.10;19.58;;;6.70;99.90;;;;;;5066008;28;20484;-77
2021/03/03 03:40:14;;;;;;;30.13;18.85;;;6.60;99.90;;;;;;5056706;28;20488;-76
2021/03/03 03:42:42;;;;;;;33.03;19.25;;;6.60;99.90;;;;;;5068996;28;20052;-74
2021/03/03 03:45:10;;;;;;;34.10;19.88;;;6.70;99.90;;;;;;5061408;28;20234;-76
2021/03/03 03:47:37;;;;;;;33.47;18.80;;;6.70;99.90;;;;;;5060723;28;20128;-76
2021/03/03 03:50:06;;;;;;;30.92;18.75;;;6.70;99.90;;;;;;5068954;28;20135;-77
2021/03/03 03:52:34;;;;;;;32.58;19.80;;;6.60;99.90;;;;;;5055220;28;20127;-76
2021/03/03 03:55:00;;;;;;;32.05;18.50;;;6.70;99.90;;;;;;5066181;28;20506;-76
2021/03/03 03:57:28;;;;;;;31.55;18.45;;;6.70;99.90;;;;;;5063320;28;20139;-76
2021/03/03 03:59:54;;;;;;;30.80;19.00;;;6.70;99.90;;;;;;5072653;28;20131;-78
2021/03/03 04:02:21;;;;;;;32.28;19.52;;;6.60;99.90;;;;;;5056291;28;20084;-77
2021/03/03 04:04:47;;;;;;;30.25;19.05;;;6.60;99.90;;;;;;5068376;28;20100;-78
2021/03/03 04:07:13;;;;;;;29.85;19.00;;;6.70;99.90;;;;;;5061236;28;20052;-77
2021/03/03 04:09:41;;;;;;;34.03;19.40;;;6.70;99.90;;;;;;5061336;28;20080;-76
2021/03/03 04:12:08;;;;;;;34.40;19.55;;;6.60;99.90;;;;;;5069409;28;20091;-74
2021/03/03 04:14:34;;;;;;;35.65;20.83;;;6.60;99.90;;;;;;5056238;28;20080;-76
2021/03/03 04:17:00;;;;;;;32.85;19.75;;;6.60;99.90;;;;;;5072819;28;20080;-76
2021/03/03 04:19:27;;;;;;;40.40;20.42;;;6.60;99.90;;;;;;5062606;28;20085;-76
2021/03/03 04:21:53;;;;;;;34.50;19.35;;;6.60;99.90;;;;;;5066930;28;20140;-76
2021/03/03 04:24:20;;;;;;;35.33;20.17;;;6.70;99.90;;;;;;5055524;28;20144;-78
2021/03/03 04:26:47;;;;;;;31.75;19.65;;;6.60;99.90;;;;;;5067574;28;20132;-76
2021/03/03 04:29:13;;;;;;;32.10;19.95;;;6.70;99.90;;;;;;5061280;28;20153;-76
2021/03/03 04:31:40;;;;;;;34.08;20.02;;;6.70;99.90;;;;;;5060588;28;20136;-77
2021/03/03 04:34:06;;;;;;;37.72;20.23;;;6.70;99.90;;;;;;5069769;28;20107;-78
2021/03/03 04:36:32;;;;;;;32.22;19.10;;;6.70;99.90;;;;;;5055804;28;20055;-77
2021/03/03 04:38:59;;;;;;;33.03;19.35;;;6.70;99.90;;;;;;5065651;28;20734;-77
2021/03/03 04:41:26;;;;;;;33.83;20.42;;;6.70;99.90;;;;;;5061919;28;20087;-74
2021/03/03 04:43:53;;;;;;;32.15;20.50;;;6.80;99.90;;;;;;5058317;28;20081;-74
2021/03/03 04:46:19;;;;;;;29.92;18.83;;;6.80;99.90;;;;;;5068120;28;20079;-74
2021/03/03 04:48:46;;;;;;;35.83;19.13;;;6.80;99.90;;;;;;5056060;28;20131;-75
2021/03/03 04:51:12;;;;;;;31.20;19.02;;;6.80;99.90;;;;;;5064055;28;20052;-76
2021/03/03 04:53:38;;;;;;;32.35;20.05;;;6.80;99.90;;;;;;5064146;28;20048;-75
2021/03/03 04:56:05;;;;;;;31.95;19.17;;;6.80;99.90;;;;;;5056068;28;20088;-75
2021/03/03 04:58:32;;;;;;;31.60;19.73;;;6.80;99.90;;;;;;5068359;28;20152;-76
2021/03/03 05:00:59;;;;;;;32.80;19.75;;;6.80;99.90;;;;;;5058465;28;20127;-76
2021/03/03 05:03:25;;;;;;;33.47;19.23;;;6.70;99.90;;;;;;5061397;28;20048;-76
2021/03/03 05:05:52;;;;;;;32.28;19.70;;;6.80;99.90;;;;;;5065280;28;20084;-76
2021/03/03 05:08:18;;;;;;;34.28;20.83;;;6.80;99.90;;;;;;5054851;28;20064;-77
2021/03/03 05:10:44;;;;;;;33.83;19.92;;;6.80;99.90;;;;;;5067255;28;20124;-76
2021/03/03 05:13:15;;;;;;;34.53;21.20;;;6.70;99.90;;;;;;5059381;28;20076;-75
2021/03/03 05:15:41;;;;;;;32.10;20.13;;;6.80;99.90;;;;;;5058813;28;20110;-75
2021/03/03 05:18:09;;;;;;;33.10;19.67;;;6.70;99.90;;;;;;5067207;28;20084;-75
2021/03/03 05:20:36;;;;;;;36.72;20.55;;;6.70;99.90;;;;;;5054814;28;20048;-75
2021/03/03 05:23:03;;;;;;;38.40;21.00;;;6.70;99.90;;;;;;5064395;28;20132;-76
2021/03/03 05:25:30;;;;;;;32.85;19.25;;;6.70;99.90;;;;;;5061648;28;20132;-75
2021/03/03 05:27:58;;;;;;;35.17;20.85;;;6.70;99.90;;;;;;5059867;28;20053;-75
2021/03/03 05:30:25;;;;;;;32.88;19.73;;;6.70;99.90;;;;;;5052860;28;20414;-75
2021/03/03 05:32:52;;;;;;;34.03;19.85;;;6.70;99.90;;;;;;5065419;28;20045;-76
2021/03/03 05:35:19;;;;;;;39.25;20.55;;;6.70;99.90;;;;;;5060059;28;20127;-77
2021/03/03 05:37:46;;;;;;;38.75;19.95;;;6.70;99.90;;;;;;5057431;28;20472;-76
2021/03/03 05:40:13;;;;;;;34.53;19.85;;;6.80;99.90;;;;;;5067706;28;20135;-77
2021/03/03 05:42:40;;;;;;;36.38;19.90;;;6.80;99.90;;;;;;5054968;28;20040;-77
2021/03/03 05:45:08;;;;;;;40.10;21.50;;;6.80;99.90;;;;;;5063703;28;20132;-77
2021/03/03 05:47:36;;;;;;;34.28;20.27;;;6.80;99.90;;;;;;5061993;28;20151;-78
2021/03/03 05:50:05;;;;;;;34.90;20.42;;;6.90;99.90;;;;;;5070894;28;20084;-78
2021/03/03 05:52:35;;;;;;;30.13;19.90;;;6.90;99.90;;;;;;5053670;28;20053;-77
2021/03/03 05:55:04;;;;;;;34.05;19.50;;;6.90;99.90;;;;;;5064374;28;20138;-76
2021/03/03 05:57:32;;;;;;;32.88;19.95;;;6.90;99.90;;;;;;5061567;28;20079;-77
2021/03/03 05:59:59;;;;;;;38.03;20.20;;;6.80;99.90;;;;;;5056208;28;20049;-77
2021/03/03 06:02:26;;;;;;;35.40;19.30;;;6.80;99.90;;;;;;5069540;28;20193;-78
2021/03/03 06:04:53;;;;;;;31.63;19.65;;;6.80;99.90;;;;;;5071371;28;20044;-76
2021/03/03 06:07:21;;;;;;;38.25;20.85;;;6.80;99.90;;;;;;5061661;28;20120;-77
2021/03/03 06:09:49;;;;;;;37.72;20.80;;;6.80;99.90;;;;;;5064620;28;20044;-77
2021/03/03 06:12:15;;;;;;;31.70;20.25;;;6.80;99.90;;;;;;5070830;28;20156;-76
2021/03/03 06:14:42;;;;;;;56.10;21.90;;;6.80;99.90;;;;;;5055436;28;20123;-77
2021/03/03 06:17:08;;;;;;;34.28;20.00;;;6.80;99.90;;;;;;5071721;28;20080;-77
2021/03/03 06:19:35;;;;;;;36.92;21.13;;;6.80;99.90;;;;;;5061213;28;20132;-76
2021/03/03 06:22:22;;;;;;;37.65;19.55;;;6.80;99.90;;;;;;5067338;28;20057;-76
2021/03/03 06:24:50;;;;;;;39.08;21.05;;;6.70;99.90;;;;;;5041107;28;20044;-76
2021/03/03 06:27:17;;;;;;;41.17;20.02;;;6.70;99.90;;;;;;5060839;28;20140;-76
2021/03/03 06:30:01;;;;;;;40.15;20.40;;;6.60;99.90;;;;;;5063582;28;20137;-77
2021/03/03 06:32:27;;;;;;;34.00;20.95;;;6.60;99.90;;;;;;5054116;28;20136;-77
2021/03/03 06:34:54;;;;;;;35.63;20.92;;;6.60;99.90;;;;;;5065125;28;20566;-78
2021/03/03 06:37:20;;;;;;;34.95;20.40;;;6.60;99.90;;;;;;5059604;28;20102;-77
2021/03/03 06:40:05;;;;;;;34.92;19.75;;;6.70;99.90;;;;;;5053210;28;20091;-76
2021/03/03 06:42:32;;;;;;;34.00;20.42;;;6.70;99.90;;;;;;5066393;28;20049;-77
2021/03/03 06:44:58;;;;;;;39.58;21.23;;;6.70;99.90;;;;;;5069575;28;20131;-78
2021/03/03 06:47:25;;;;;;;42.40;24.95;;;6.70;99.90;;;;;;5069881;28;20182;-78
2021/03/03 06:49:53;;;;;;;44.08;25.95;;;6.80;99.90;;;;;;5056759;28;20110;-78
2021/03/03 06:52:37;;;;;;;43.38;26.75;;;6.90;99.90;;;;;;5066825;28;20087;-79
2021/03/03 06:55:05;;;;;;;41.47;21.35;;;6.90;99.90;;;;;;5050484;28;20075;-79
2021/03/03 06:57:32;;;;;;;37.67;20.98;;;6.90;99.90;;;;;;5060752;28;20127;-78
2021/03/03 06:59:59;;;;;;;36.53;20.63;;;6.90;99.90;;;;;;5053779;28;20059;-78
2021/03/03 07:02:31;;;;;;;39.63;20.58;;;6.90;99.90;;;;;;5051370;28;20045;-77
2021/03/03 07:04:59;;;;;;;43.83;20.80;;;6.90;99.90;;;;;;5067502;28;20102;-78
2021/03/03 07:07:26;;;;;;;40.65;21.55;;;6.90;99.90;;;;;;5062815;28;20576;-77
2021/03/03 07:09:57;;;;;;;42.47;21.83;;;6.90;99.90;;;;;;5060006;28;20084;-76
2021/03/03 07:12:29;;;;;;;47.20;21.10;;;7.00;99.90;;;;;;5070279;28;20088;-77
2021/03/03 07:14:58;;;;;;;38.50;20.17;;;7.00;99.90;;;;;;5059627;28;20162;-78
2021/03/03 07:17:31;;;;;;;38.53;20.05;;;7.00;99.90;;;;;;5062639;28;20187;-77
2021/03/03 07:20:00;;;;;;;34.83;20.98;;;7.00;99.90;;;;;;5068518;28;20127;-76
2021/03/03 07:22:29;;;;;;;35.97;19.85;;;7.10;99.90;;;;;;5056910;28;20082;-76
2021/03/03 07:24:59;;;;;;;44.55;20.88;;;7.10;99.90;;;;;;5066990;28;20123;-77
2021/03/03 07:27:26;;;;;;;46.65;22.25;;;7.10;99.90;;;;;;5062100;28;20422;-76
2021/03/03 07:29:54;;;;;;;40.10;20.73;;;7.10;99.90;;;;;;5059508;28;20131;-76
2021/03/03 07:32:22;;;;;;;37.88;20.45;;;7.20;99.90;;;;;;5069441;28;20057;-76
2021/03/03 07:34:50;;;;;;;39.92;21.13;;;7.30;99.90;;;;;;5068254;28;20045;-76
2021/03/03 07:37:18;;;;;;;46.00;22.02;;;7.40;99.90;;;;;;5057331;28;20124;-76
2021/03/03 07:39:49;;;;;;;35.22;21.73;;;7.60;99.90;;;;;;5053882;28;20135;-76
2021/03/03 07:42:23;;;;;;;41.42;21.60;;;7.70;99.90;;;;;;5058906;28;20182;-76
2021/03/03 07:44:51;;;;;;;39.28;20.85;;;7.80;99.90;;;;;;5057015;28;20127;-77
2021/03/03 07:47:17;;;;;;;36.20;21.17;;;7.90;99.90;;;;;;5060456;28;20092;-79
2021/03/03 07:49:49;;;;;;;44.83;26.38;;;7.90;99.90;;;;;;5076773;28;20050;-79
2021/03/03 07:52:18;;;;;;;42.83;20.98;;;8.10;99.90;;;;;;5070735;28;20063;-76
2021/03/03 07:54:45;;;;;;;41.08;19.88;;;8.10;99.90;;;;;;5089224;28;20124;-77
2021/03/03 07:57:13;;;;;;;37.60;20.98;;;8.20;99.90;;;;;;5062227;28;20140;-77
2021/03/03 07:59:42;;;;;;;36.42;20.60;;;8.40;99.90;;;;;;5061708;28;20123;-78
2021/03/03 08:02:08;;;;;;;35.40;19.45;;;8.70;99.90;;;;;;5069475;28;20490;-78
2021/03/03 08:04:36;;;;;;;36.17;20.15;;;8.90;99.90;;;;;;5056731;28;20087;-78
2021/03/03 08:07:19;;;;;;;38.35;20.90;;;9.10;99.90;;;;;;5066092;28;20080;-78
2021/03/03 08:10:25;;;;;;;32.78;19.35;;;9.20;99.90;;;;;;5067085;28;20468;-77
2021/03/03 08:13:05;;;;;;;40.15;20.17;;;9.30;99.90;;;;;;5044379;28;20052;-76
2021/03/03 08:15:39;;;;;;;32.05;20.27;;;9.50;99.90;;;;;;5060810;28;20515;-77
2021/03/03 08:18:27;;;;;;;32.05;20.38;;;9.80;99.90;;;;;;5068689;28;20575;-78
2021/03/03 08:20:54;;;;;;;37.75;20.25;;;9.90;99.90;;;;;;5043166;28;20055;-81
2021/03/03 08:23:44;;;;;;;38.20;20.50;;;10.00;99.90;;;;;;5062492;28;20458;-78
2021/03/03 08:26:33;;;;;;;40.17;20.27;;;10.20;99.90;;;;;;5069161;28;20102;-76
2021/03/03 08:29:26;;;;;;;41.80;21.00;;;10.40;99.90;;;;;;5046548;28;20048;-77
2021/03/03 08:32:02;;;;;;;34.55;20.75;;;10.50;99.90;;;;;;5057479;28;20122;-77
2021/03/03 08:34:49;;;;;;;31.27;19.92;;;10.50;99.90;;;;;;5054765;28;20068;-80
2021/03/03 08:37:37;;;;;;;35.50;20.10;;;10.60;99.90;;;;;;5055466;28;20041;-81
2021/03/03 08:40:26;;;;;;;37.33;21.15;;;10.60;99.90;;;;;;5045305;28;20045;-80
2021/03/03 08:42:52;;;;;;;33.58;20.05;;;10.60;99.90;;;;;;5049375;28;20049;-80
2021/03/03 08:45:20;;;;;;;35.53;20.13;;;10.60;99.90;;;;;;5049759;28;20068;-79
2021/03/03 08:47:57;;;;;;;36.33;19.77;;;10.50;99.90;;;;;;5049121;28;20049;-81
2021/03/03 08:50:57;;;;;;;33.90;19.73;;;10.70;99.90;;;;;;5047914;28;20065;-79
2021/03/03 08:53:27;;;;;;;30.13;19.75;;;10.70;99.90;;;;;;5048736;28;20106;-80
2021/03/03 08:55:56;;;;;;;30.92;19.90;;;10.70;99.90;;;;;;5049097;28;20428;-79
2021/03/03 08:58:49;;;;;;;29.08;19.38;;;10.90;99.90;;;;;;5048907;28;20129;-80
2021/03/03 09:01:17;;;;;;;34.17;19.70;;;11.10;99.90;;;;;;5048266;28;20069;-79
2021/03/03 09:03:49;;;;;;;32.78;19.50;;;11.10;99.90;;;;;;5046575;28;20046;-80
2021/03/03 09:06:23;;;;;;;34.25;19.88;;;11.00;99.90;;;;;;5048577;28;20045;-80
2021/03/03 09:09:01;;;;;;;34.70;19.63;;;11.10;99.90;;;;;;5050227;28;20054;-80
2021/03/03 09:11:28;;;;;;;29.75;18.80;;;11.10;99.90;;;;;;5048553;28;20053;-80
2021/03/03 09:13:57;;;;;;;27.85;18.40;;;11.10;99.90;;;;;;5048478;28;20045;-80
2021/03/03 09:16:24;;;;;;;33.03;19.70;;;11.30;99.90;;;;;;5048660;28;20069;-80
2021/03/03 09:19:07;;;;;;;31.45;19.35;;;11.50;99.90;;;;;;5047658;28;20113;-81
2021/03/03 09:21:36;;;;;;;28.13;19.15;;;11.60;99.90;;;;;;5047626;28;20053;-82
2021/03/03 09:24:10;;;;;;;31.85;20.65;;;11.70;99.90;;;;;;5050632;28;20053;-81
2021/03/03 09:26:38;;;;;;;29.77;19.10;;;11.60;99.90;;;;;;5049637;28;20045;-81
2021/03/03 09:29:04;;;;;;;30.30;19.63;;;11.50;99.90;;;;;;5049838;28;20206;-81
2021/03/03 09:31:33;;;;;;;32.30;20.25;;;11.40;99.90;;;;;;5049984;28;20061;-81
2021/03/03 09:33:59;;;;;;;35.28;21.08;;;11.30;99.90;;;;;;5049476;28;20048;-81
2021/03/03 09:36:26;;;;;;;29.75;19.70;;;11.30;99.90;;;;;;5046235;28;20055;-81
2021/03/03 09:38:58;;;;;;;32.22;20.52;;;11.30;99.90;;;;;;5045846;28;20057;-81
2021/03/03 09:41:25;;;;;;;31.98;19.25;;;11.40;99.90;;;;;;5045086;28;20049;-81
2021/03/03 09:44:04;;;;;;;29.67;19.35;;;11.40;99.90;;;;;;5043773;28;20423;-81
2021/03/03 09:46:52;;;;;;;37.17;20.02;;;11.50;99.90;;;;;;5043972;28;20079;-81
2021/03/03 09:49:23;;;;;;;38.67;20.48;;;11.70;99.90;;;;;;5044843;28;20060;-80
2021/03/03 09:51:49;;;;;;;34.28;20.27;;;11.80;99.90;;;;;;5041316;28;20057;-80
2021/03/03 09:54:32;;;;;;;38.25;20.83;;;11.90;99.90;;;;;;5043351;28;20045;-80
2021/03/03 09:57:12;;;;;;;37.33;21.23;;;12.00;99.90;;;;;;5045090;28;20053;-81
2021/03/03 09:59:43;;;;;;;40.67;20.90;;;12.00;99.90;;;;;;5046025;28;20053;-81
2021/03/03 10:02:11;;;;;;;35.75;20.83;;;12.20;99.90;;;;;;5049112;28;20479;-81
2021/03/03 10:04:39;;;;;;;34.13;20.65;;;12.40;99.90;;;;;;5048949;28;20049;-82
2021/03/03 10:07:10;;;;;;;32.72;20.63;;;12.60;99.90;;;;;;5046854;28;20049;-81
2021/03/03 10:09:41;;;;;;;41.95;20.30;;;12.80;99.90;;;;;;5044643;28;20061;-81
2021/03/03 10:12:15;;;;;;;39.25;21.17;;;12.90;99.90;;;;;;5046469;28;20095;-81
2021/03/03 10:15:03;;;;;;;36.92;20.17;;;12.80;99.90;;;;;;5047305;28;20110;-80
2021/03/03 10:17:35;;;;;;;33.35;20.50;;;12.80;99.90;;;;;;5044638;28;20077;-81
2021/03/03 10:20:03;;;;;;;30.17;19.30;;;12.80;99.90;;;;;;5044596;28;20103;-80
2021/03/03 10:22:30;;;;;;;37.33;20.33;;;13.00;99.90;;;;;;5045846;28;20296;-80
2021/03/03 10:25:01;;;;;;;34.00;20.90;;;13.10;99.90;;;;;;5047410;28;20179;-80
2021/03/03 10:27:35;;;;;;;35.45;20.15;;;13.10;99.90;;;;;;5045257;28;20057;-80
2021/03/03 10:30:22;;;;;;;37.30;21.48;;;13.20;99.90;;;;;;5044618;28;20415;-81
2021/03/03 10:32:48;;;;;;;33.55;21.38;;;13.30;99.90;;;;;;5037876;28;20135;-80
2021/03/03 10:35:15;;;;;;;34.90;21.15;;;13.30;99.90;;;;;;5035700;28;20050;-80
2021/03/03 10:37:42;;;;;;;33.30;21.45;;;13.30;99.90;;;;;;5040279;28;20043;-80
2021/03/03 10:40:12;;;;;;;32.58;21.30;;;13.30;99.90;;;;;;5046174;28;20127;-79
2021/03/03 10:42:39;;;;;;;37.85;21.55;;;13.40;99.90;;;;;;5045460;28;20082;-81
2021/03/03 10:45:16;;;;;;;36.40;21.40;;;13.60;99.90;;;;;;5044584;28;20046;-79
2021/03/03 10:47:45;;;;;;;32.20;21.67;;;13.60;99.90;;;;;;5044742;28;20084;-80
2021/03/03 10:50:13;;;;;;;38.22;21.30;;;13.70;99.90;;;;;;5043833;28;20057;-80
2021/03/03 10:52:52;;;;;;;33.85;21.92;;;13.80;99.90;;;;;;5044402;28;20455;-79
2021/03/03 10:55:22;;;;;;;35.08;21.52;;;13.90;99.90;;;;;;5044535;28;20077;-79
2021/03/03 10:58:08;;;;;;;41.88;22.63;;;14.10;99.90;;;;;;5044023;28;20084;-79
2021/03/03 11:00:54;;;;;;;47.65;22.38;;;14.20;99.90;;;;;;5044824;28;20130;-80
2021/03/03 11:03:30;;;;;;;38.00;23.67;;;14.40;99.90;;;;;;5033713;28;20112;-80
2021/03/03 11:06:03;;;;;;;40.67;21.98;;;14.50;99.90;;;;;;5049014;28;20054;-81
2021/03/03 11:08:41;;;;;;;37.33;21.60;;;14.70;99.90;;;;;;5048006;28;20050;-80
2021/03/03 11:11:24;;;;;;;36.58;22.17;;;14.80;99.90;;;;;;5047610;28;20109;-80
2021/03/03 11:13:54;;;;;;;39.78;23.90;;;14.90;99.90;;;;;;5048152;28;20045;-79
2021/03/03 11:16:21;;;;;;;40.65;22.70;;;15.00;99.90;;;;;;5047890;28;20053;-79
2021/03/03 11:18:49;;;;;;;41.03;22.80;;;15.00;99.90;;;;;;5045864;28;20049;-79
2021/03/03 11:21:18;;;;;;;40.90;23.63;;;15.10;99.90;;;;;;5045414;28;20052;-79
2021/03/03 11:24:03;;;;;;;39.15;23.10;;;15.20;99.90;;;;;;5045113;28;20045;-78
2021/03/03 11:26:30;;;;;;;45.55;23.40;;;15.30;99.90;;;;;;5049646;28;20052;-80
2021/03/03 11:29:26;;;;;;;37.05;23.92;;;15.40;99.90;;;;;;5049833;28;20046;-79
2021/03/03 11:32:05;;;;;;;42.45;24.90;;;15.50;99.90;;;;;;5049593;28;20072;-80
2021/03/03 11:34:36;;;;;;;42.20;24.70;;;15.50;99.90;;;;;;5051595;28;20045;-79
2021/03/03 11:37:18;;;;;;;39.63;23.60;;;15.60;99.90;;;;;;5051613;28;20079;-80
2021/03/03 11:39:53;;;;;;;44.47;25.13;;;15.50;99.90;;;;;;5050248;28;20109;-80
2021/03/03 11:42:31;;;;;;;42.33;24.23;;;15.50;99.90;;;;;;5049200;28;20069;-79
2021/03/03 11:44:58;;;;;;;41.63;25.17;;;15.60;99.90;;;;;;5048310;28;20064;-79
2021/03/03 11:47:28;;;;;;;40.85;24.88;;;15.70;99.90;;;;;;5046496;28;20050;-79
2021/03/03 11:49:56;;;;;;;44.97;26.55;;;15.80;99.90;;;;;;5045388;28;20049;-80
2021/03/03 11:52:22;;;;;;;43.45;25.27;;;15.80;99.90;;;;;;5040144;28;20431;-79
2021/03/03 11:54:49;;;;;;;39.72;24.33;;;15.80;99.90;;;;;;5042085;28;20073;-80
2021/03/03 11:57:15;;;;;;;42.00;26.63;;;15.90;99.90;;;;;;5047106;28;20046;-79
2021/03/03 11:59:41;;;;;;;47.75;26.23;;;16.00;99.90;;;;;;5047799;28;20053;-80
2021/03/03 12:02:08;;;;;;;46.38;26.75;;;16.10;99.90;;;;;;5065851;28;20061;-80
2021/03/03 12:04:35;;;;;;;38.80;25.80;;;16.20;99.90;;;;;;5067135;28;20060;-80
2021/03/03 12:07:04;;;;;;;43.00;26.13;;;16.30;99.90;;;;;;5067082;28;20064;-80
2021/03/03 12:09:30;;;;;;;43.53;25.65;;;16.30;99.90;;;;;;5067598;28;20088;-81
2021/03/03 12:11:57;;;;;;;40.53;26.30;;;16.40;99.90;;;;;;5066804;28;20111;-80
2021/03/03 12:14:23;;;;;;;46.45;26.75;;;16.40;99.90;;;;;;5067623;28;20076;-81
2021/03/03 12:16:50;;;;;;;44.60;26.25;;;16.50;99.90;;;;;;5066979;28;20056;-81
2021/03/03 12:19:16;;;;;;;43.35;26.02;;;16.50;99.90;;;;;;5067048;28;20495;-80
2021/03/03 12:21:42;;;;;;;40.05;25.60;;;16.50;99.90;;;;;;5066706;28;20053;-81
2021/03/03 12:24:10;;;;;;;48.25;27.30;;;16.60;99.90;;;;;;5061349;28;20495;-79
2021/03/03 12:26:37;;;;;;;44.88;27.10;;;16.70;99.90;;;;;;5057190;28;20103;-78
2021/03/03 12:29:09;;;;;;;45.33;28.20;;;16.70;99.90;;;;;;5065747;28;20106;-80
2021/03/03 12:31:36;;;;;;;47.72;25.42;;;16.70;99.90;;;;;;5065155;28;20049;-81
2021/03/03 12:34:02;;;;;;;42.97;26.42;;;16.70;99.90;;;;;;5064062;28;20072;-81
2021/03/03 12:36:29;;;;;;;44.05;24.90;;;16.70;99.90;;;;;;5064941;28;20057;-78
2021/03/03 12:38:55;;;;;;;43.60;26.30;;;16.70;99.90;;;;;;5065012;28;20053;-79
2021/03/03 12:41:22;;;;;;;46.40;26.08;;;16.80;99.90;;;;;;5064441;28;20064;-79
2021/03/03 12:43:52;;;;;;;57.20;26.65;;;16.90;99.90;;;;;;5063480;28;20068;-79
2021/03/03 12:46:18;;;;;;;49.55;28.73;;;16.90;99.90;;;;;;5063209;28;20291;-79